sensor_id;sensor_type;location;lat;lon;timestamp;temperature;humidity
30648;DHT22;17683;53.360;9.736;2024-03-08T00:02:00;2.30;99.90
30648;DHT22;17683;53.360;9.736;2024-03-08T00:04:26;2.30;99.90
30648;DHT22;17683;53.360;9.736;2024-03-08T00:06:51;2.30;99.90
30648;DHT22;17683;53.360;9.736;2024-03-08T00:09:17;2.20;99.90
30648;DHT22;17683;53.360;9.736;2024-03-08T00:11:43;2.20;99.90
30648;DHT22;17683;53.360;9.736;2024-03-08T00:14:09;2.30;99.90
30648;DHT22;17683;53.360;9.736;2024-03-08T00:16:35;2.30;99.90
30648;DHT22;17683;53.360;9.736;2024-03-08T00:19:04;2.30;99.90
30648;DHT22;17683;53.360;9.736;2024-03-08T00:21:29;2.30;99.90
30648;DHT22;17683;53.360;9.736;2024-03-08T00:23:56;2.30;99.90
30648;DHT22;17683;53.360;9.736;2024-03-08T00:26:22;2.20;99.90
30648;DHT22;17683;53.360;9.736;2024-03-08T00:28:48;2.30;99.90
30648;DHT22;17683;53.360;9.736;2024-03-08T00:31:14;2.20;99.90
30648;DHT22;17683;53.360;9.736;2024-03-08T00:33:43;2.20;99.90
30648;DHT22;17683;53.360;9.736;2024-03-08T00:36:09;2.20;99.90
30648;DHT22;17683;53.360;9.736;2024-03-08T00:38:34;2.20;99.90
30648;DHT22;17683;53.360;9.736;2024-03-08T00:41:00;2.20;99.90
30648;DHT22;17683;53.360;9.736;2024-03-08T00:43:27;2.10;99.90
30648;DHT22;17683;53.360;9.736;2024-03-08T00:45:54;2.10;99.90
30648;DHT22;17683;53.360;9.736;2024-03-08T00:48:19;2.10;99.90
30648;DHT22;17683;53.360;9.736;2024-03-08T00:50:46;2.10;99.90
30648;DHT22;17683;53.360;9.736;2024-03-08T00:53:12;2.10;99.90
30648;DHT22;17683;53.360;9.736;2024-03-08T00:55:38;2.10;99.90
30648;DHT22;17683;53.360;9.736;2024-03-08T00:58:04;2.00;99.90
30648;DHT22;17683;53.360;9.736;2024-03-08T01:00:30;2.10;99.90
30648;DHT22;17683;53.360;9.736;2024-03-08T01:02:56;2.10;99.90
30648;DHT22;17683;53.360;9.736;2024-03-08T01:05:22;2.00;99.90
30648;DHT22;17683;53.360;9.736;2024-03-08T01:07:50;2.00;99.90
30648;DHT22;17683;53.360;9.736;2024-03-08T01:10:16;2.00;99.90
30648;DHT22;17683;53.360;9.736;2024-03-08T01:12:42;1.90;99.90
30648;DHT22;17683;53.360;9.736;2024-03-08T01:15:09;1.90;99.90
30648;DHT22;17683;53.360;9.736;2024-03-08T01:17:36;1.90;99.90
30648;DHT22;17683;53.360;9.736;2024-03-08T01:20:03;1.90;99.90
30648;DHT22;17683;53.360;9.736;2024-03-08T01:22:28;1.90;99.90
30648;DHT22;17683;53.360;9.736;2024-03-08T01:24:56;1.80;99.90
30648;DHT22;17683;53.360;9.736;2024-03-08T01:27:22;1.80;99.90
30648;DHT22;17683;53.360;9.736;2024-03-08T01:29:48;1.80;99.90
30648;DHT22;17683;53.360;9.736;2024-03-08T01:32:14;1.70;99.90
30648;DHT22;17683;53.360;9.736;2024-03-08T01:34:40;1.70;99.90
30648;DHT22;17683;53.360;9.736;2024-03-08T01:37:06;1.70;99.90
30648;DHT22;17683;53.360;9.736;2024-03-08T01:39:32;1.70;99.90
30648;DHT22;17683;53.360;9.736;2024-03-08T01:41:58;1.70;99.90
30648;DHT22;17683;53.360;9.736;2024-03-08T01:44:24;1.60;99.90
30648;DHT22;17683;53.360;9.736;2024-03-08T01:46:51;1.60;99.90
30648;DHT22;17683;53.360;9.736;2024-03-08T01:49:18;1.60;99.90
30648;DHT22;17683;53.360;9.736;2024-03-08T01:51:46;1.60;99.90
30648;DHT22;17683;53.360;9.736;2024-03-08T01:54:14;1.60;99.90
30648;DHT22;17683;53.360;9.736;2024-03-08T01:56:42;1.60;99.90
30648;DHT22;17683;53.360;9.736;2024-03-08T01:59:08;1.60;99.90
30648;DHT22;17683;53.360;9.736;2024-03-08T02:01:34;1.60;99.90
30648;DHT22;17683;53.360;9.736;2024-03-08T02:04:00;1.60;99.90
30648;DHT22;17683;53.360;9.736;2024-03-08T02:06:26;1.50;99.90
30648;DHT22;17683;53.360;9.736;2024-03-08T02:08:51;1.60;99.90
30648;DHT22;17683;53.360;9.736;2024-03-08T02:11:18;1.50;99.90
30648;DHT22;17683;53.360;9.736;2024-03-08T02:13:46;1.50;99.90
30648;DHT22;17683;53.360;9.736;2024-03-08T02:16:12;1.50;99.90
30648;DHT22;17683;53.360;9.736;2024-03-08T02:18:38;1.40;99.90
30648;DHT22;17683;53.360;9.736;2024-03-08T02:21:06;1.40;99.90
30648;DHT22;17683;53.360;9.736;2024-03-08T02:23:33;1.40;99.90
30648;DHT22;17683;53.360;9.736;2024-03-08T02:25:58;1.40;99.90
30648;DHT22;17683;53.360;9.736;2024-03-08T02:28:25;1.40;99.90
30648;DHT22;17683;53.360;9.736;2024-03-08T02:30:51;1.40;99.90
30648;DHT22;17683;53.360;9.736;2024-03-08T02:33:17;1.40;99.90
30648;DHT22;17683;53.360;9.736;2024-03-08T02:35:46;1.40;99.90
30648;DHT22;17683;53.360;9.736;2024-03-08T02:38:17;1.40;99.90
30648;DHT22;17683;53.360;9.736;2024-03-08T02:40:49;1.30;99.90
30648;DHT22;17683;53.360;9.736;2024-03-08T02:43:17;1.30;99.90
30648;DHT22;17683;53.360;9.736;2024-03-08T02:45:48;1.30;99.90
30648;DHT22;17683;53.360;9.736;2024-03-08T02:48:14;1.20;99.90
30648;DHT22;17683;53.360;9.736;2024-03-08T02:50:41;1.20;99.90
30648;DHT22;17683;53.360;9.736;2024-03-08T02:53:11;1.30;99.90
30648;DHT22;17683;53.360;9.736;2024-03-08T02:55:38;1.20;99.90
30648;DHT22;17683;53.360;9.736;2024-03-08T02:58:05;1.20;99.90
30648;DHT22;17683;53.360;9.736;2024-03-08T03:00:31;1.20;99.90
30648;DHT22;17683;53.360;9.736;2024-03-08T03:02:58;1.20;99.90
30648;DHT22;17683;53.360;9.736;2024-03-08T03:05:24;1.20;99.90
30648;DHT22;17683;53.360;9.736;2024-03-08T03:07:51;1.20;99.90
30648;DHT22;17683;53.360;9.736;2024-03-08T03:10:17;1.10;99.90
30648;DHT22;17683;53.360;9.736;2024-03-08T03:12:44;1.10;99.90
30648;DHT22;17683;53.360;9.736;2024-03-08T03:15:13;1.10;99.90
30648;DHT22;17683;53.360;9.736;2024-03-08T03:17:39;1.10;99.90
30648;DHT22;17683;53.360;9.736;2024-03-08T03:20:08;1.10;99.90
30648;DHT22;17683;53.360;9.736;2024-03-08T03:22:38;1.10;99.90
30648;DHT22;17683;53.360;9.736;2024-03-08T03:25:04;1.10;99.90
30648;DHT22;17683;53.360;9.736;2024-03-08T03:27:32;1.00;99.90
30648;DHT22;17683;53.360;9.736;2024-03-08T03:29:58;1.00;99.90
30648;DHT22;17683;53.360;9.736;2024-03-08T03:32:24;1.00;99.90
30648;DHT22;17683;53.360;9.736;2024-03-08T03:34:50;1.00;99.90
30648;DHT22;17683;53.360;9.736;2024-03-08T03:37:19;1.00;99.90
30648;DHT22;17683;53.360;9.736;2024-03-08T03:39:45;1.00;99.90
30648;DHT22;17683;53.360;9.736;2024-03-08T03:42:18;1.00;99.90
30648;DHT22;17683;53.360;9.736;2024-03-08T03:44:48;1.00;99.90
30648;DHT22;17683;53.360;9.736;2024-03-08T03:47:17;1.00;99.90
30648;DHT22;17683;53.360;9.736;2024-03-08T03:49:43;1.00;99.90
30648;DHT22;17683;53.360;9.736;2024-03-08T03:52:09;0.90;99.90
30648;DHT22;17683;53.360;9.736;2024-03-08T03:54:36;0.90;99.90
30648;DHT22;17683;53.360;9.736;2024-03-08T03:57:02;0.90;99.90
30648;DHT22;17683;53.360;9.736;2024-03-08T03:59:28;0.90;99.90
30648;DHT22;17683;53.360;9.736;2024-03-08T04:01:54;0.80;99.90
30648;DHT22;17683;53.360;9.736;2024-03-08T04:04:23;0.90;99.90
30648;DHT22;17683;53.360;9.736;2024-03-08T04:06:50;0.80;99.90
30648;DHT22;17683;53.360;9.736;2024-03-08T04:09:17;0.80;99.90
30648;DHT22;17683;53.360;9.736;2024-03-08T04:11:45;0.90;99.90
30648;DHT22;17683;53.360;9.736;2024-03-08T04:14:11;0.90;99.90
30648;DHT22;17683;53.360;9.736;2024-03-08T04:16:37;0.80;99.90
30648;DHT22;17683;53.360;9.736;2024-03-08T04:19:03;0.80;99.90
30648;DHT22;17683;53.360;9.736;2024-03-08T04:21:32;0.80;99.90
30648;DHT22;17683;53.360;9.736;2024-03-08T04:23:58;0.80;99.90
30648;DHT22;17683;53.360;9.736;2024-03-08T04:26:24;0.80;99.90
30648;DHT22;17683;53.360;9.736;2024-03-08T04:28:51;0.80;99.90
30648;DHT22;17683;53.360;9.736;2024-03-08T04:31:17;0.70;99.90
30648;DHT22;17683;53.360;9.736;2024-03-08T04:33:43;0.70;99.90
30648;DHT22;17683;53.360;9.736;2024-03-08T04:36:10;0.70;99.90
30648;DHT22;17683;53.360;9.736;2024-03-08T04:38:39;0.70;99.90
30648;DHT22;17683;53.360;9.736;2024-03-08T04:41:06;0.70;99.90
30648;DHT22;17683;53.360;9.736;2024-03-08T04:43:33;0.70;99.90
30648;DHT22;17683;53.360;9.736;2024-03-08T04:45:59;0.70;99.90
30648;DHT22;17683;53.360;9.736;2024-03-08T04:48:25;0.70;99.90
30648;DHT22;17683;53.360;9.736;2024-03-08T04:50:52;0.60;99.90
30648;DHT22;17683;53.360;9.736;2024-03-08T04:53:19;0.60;99.90
30648;DHT22;17683;53.360;9.736;2024-03-08T04:55:45;0.60;99.90
30648;DHT22;17683;53.360;9.736;2024-03-08T04:58:11;0.50;99.90
30648;DHT22;17683;53.360;9.736;2024-03-08T05:00:36;0.50;99.90
30648;DHT22;17683;53.360;9.736;2024-03-08T05:03:02;0.50;99.90
30648;DHT22;17683;53.360;9.736;2024-03-08T05:05:28;0.50;99.90
30648;DHT22;17683;53.360;9.736;2024-03-08T05:07:54;0.50;99.90
30648;DHT22;17683;53.360;9.736;2024-03-08T05:10:20;0.50;99.90
30648;DHT22;17683;53.360;9.736;2024-03-08T05:12:46;0.60;99.90
30648;DHT22;17683;53.360;9.736;2024-03-08T05:15:11;0.50;99.90
30648;DHT22;17683;53.360;9.736;2024-03-08T05:17:37;0.50;99.90
30648;DHT22;17683;53.360;9.736;2024-03-08T05:20:03;0.50;99.90
30648;DHT22;17683;53.360;9.736;2024-03-08T05:22:29;0.50;99.90
30648;DHT22;17683;53.360;9.736;2024-03-08T05:24:55;0.40;99.90
30648;DHT22;17683;53.360;9.736;2024-03-08T05:27:21;0.40;99.90
30648;DHT22;17683;53.360;9.736;2024-03-08T05:29:46;0.40;99.90
30648;DHT22;17683;53.360;9.736;2024-03-08T05:32:12;0.40;99.90
30648;DHT22;17683;53.360;9.736;2024-03-08T05:34:38;0.40;99.90
30648;DHT22;17683;53.360;9.736;2024-03-08T05:37:04;0.40;99.90
30648;DHT22;17683;53.360;9.736;2024-03-08T05:39:30;0.40;99.90
30648;DHT22;17683;53.360;9.736;2024-03-08T05:41:56;0.40;99.90
30648;DHT22;17683;53.360;9.736;2024-03-08T05:44:22;0.30;99.90
30648;DHT22;17683;53.360;9.736;2024-03-08T05:46:48;0.30;99.90
30648;DHT22;17683;53.360;9.736;2024-03-08T05:49:14;0.20;99.90
30648;DHT22;17683;53.360;9.736;2024-03-08T05:51:40;0.30;99.90
30648;DHT22;17683;53.360;9.736;2024-03-08T05:54:09;0.20;99.90
30648;DHT22;17683;53.360;9.736;2024-03-08T05:56:39;0.20;99.90
30648;DHT22;17683;53.360;9.736;2024-03-08T05:59:11;0.20;99.90
30648;DHT22;17683;53.360;9.736;2024-03-08T06:01:36;0.20;99.90
30648;DHT22;17683;53.360;9.736;2024-03-08T06:04:04;0.20;99.90
30648;DHT22;17683;53.360;9.736;2024-03-08T06:06:30;0.20;99.90
30648;DHT22;17683;53.360;9.736;2024-03-08T06:08:56;0.20;99.90
30648;DHT22;17683;53.360;9.736;2024-03-08T06:11:22;0.20;99.90
30648;DHT22;17683;53.360;9.736;2024-03-08T06:13:48;0.20;99.90
30648;DHT22;17683;53.360;9.736;2024-03-08T06:16:15;0.20;99.90
30648;DHT22;17683;53.360;9.736;2024-03-08T06:18:41;0.20;99.90
30648;DHT22;17683;53.360;9.736;2024-03-08T06:21:08;0.20;99.90
30648;DHT22;17683;53.360;9.736;2024-03-08T06:23:41;0.20;99.90
30648;DHT22;17683;53.360;9.736;2024-03-08T06:26:10;0.20;99.90
30648;DHT22;17683;53.360;9.736;2024-03-08T06:28:35;0.20;99.90
30648;DHT22;17683;53.360;9.736;2024-03-08T06:31:02;0.30;99.90
30648;DHT22;17683;53.360;9.736;2024-03-08T06:33:28;0.30;99.90
30648;DHT22;17683;53.360;9.736;2024-03-08T06:35:58;0.30;99.90
30648;DHT22;17683;53.360;9.736;2024-03-08T06:38:24;0.30;99.90
30648;DHT22;17683;53.360;9.736;2024-03-08T06:40:51;0.30;99.90
30648;DHT22;17683;53.360;9.736;2024-03-08T06:43:17;0.30;99.90
30648;DHT22;17683;53.360;9.736;2024-03-08T06:45:46;0.40;99.90
30648;DHT22;17683;53.360;9.736;2024-03-08T06:48:16;0.40;99.90
30648;DHT22;17683;53.360;9.736;2024-03-08T06:50:43;0.40;99.90
30648;DHT22;17683;53.360;9.736;2024-03-08T06:53:10;0.50;99.90
30648;DHT22;17683;53.360;9.736;2024-03-08T06:55:36;0.50;99.90
30648;DHT22;17683;53.360;9.736;2024-03-08T06:58:02;0.60;99.90
30648;DHT22;17683;53.360;9.736;2024-03-08T07:00:28;0.60;99.90
30648;DHT22;17683;53.360;9.736;2024-03-08T07:02:56;0.60;99.90
30648;DHT22;17683;53.360;9.736;2024-03-08T07:05:26;0.70;99.90
30648;DHT22;17683;53.360;9.736;2024-03-08T07:07:52;0.70;99.90
30648;DHT22;17683;53.360;9.736;2024-03-08T07:10:23;0.80;99.90
30648;DHT22;17683;53.360;9.736;2024-03-08T07:12:52;0.90;99.90
30648;DHT22;17683;53.360;9.736;2024-03-08T07:15:21;0.90;99.90
30648;DHT22;17683;53.360;9.736;2024-03-08T07:17:48;1.00;99.90
30648;DHT22;17683;53.360;9.736;2024-03-08T07:20:15;1.10;99.90
30648;DHT22;17683;53.360;9.736;2024-03-08T07:22:45;1.10;99.90
30648;DHT22;17683;53.360;9.736;2024-03-08T07:25:16;1.20;99.90
30648;DHT22;17683;53.360;9.736;2024-03-08T07:27:56;1.30;99.90
30648;DHT22;17683;53.360;9.736;2024-03-08T07:30:23;1.30;99.90
30648;DHT22;17683;53.360;9.736;2024-03-08T07:33:08;1.40;99.90
30648;DHT22;17683;53.360;9.736;2024-03-08T07:35:37;1.40;99.90
30648;DHT22;17683;53.360;9.736;2024-03-08T07:38:12;1.50;99.90
30648;DHT22;17683;53.360;9.736;2024-03-08T07:40:41;1.60;99.90
30648;DHT22;17683;53.360;9.736;2024-03-08T07:43:10;1.60;99.90
30648;DHT22;17683;53.360;9.736;2024-03-08T07:45:37;1.70;99.90
30648;DHT22;17683;53.360;9.736;2024-03-08T07:48:03;1.70;99.90
30648;DHT22;17683;53.360;9.736;2024-03-08T07:50:29;1.80;99.90
30648;DHT22;17683;53.360;9.736;2024-03-08T07:52:55;1.80;99.90
30648;DHT22;17683;53.360;9.736;2024-03-08T07:55:21;1.90;99.90
30648;DHT22;17683;53.360;9.736;2024-03-08T07:57:49;1.90;99.90
30648;DHT22;17683;53.360;9.736;2024-03-08T08:00:16;2.00;99.90
30648;DHT22;17683;53.360;9.736;2024-03-08T08:02:44;2.10;99.90
30648;DHT22;17683;53.360;9.736;2024-03-08T08:05:11;2.10;99.90
30648;DHT22;17683;53.360;9.736;2024-03-08T08:07:37;2.20;99.90
30648;DHT22;17683;53.360;9.736;2024-03-08T08:10:03;2.30;99.90
30648;DHT22;17683;53.360;9.736;2024-03-08T08:12:31;2.30;99.90
30648;DHT22;17683;53.360;9.736;2024-03-08T08:15:00;2.40;99.90
30648;DHT22;17683;53.360;9.736;2024-03-08T08:17:26;2.40;99.90
30648;DHT22;17683;53.360;9.736;2024-03-08T08:19:52;2.40;99.90
30648;DHT22;17683;53.360;9.736;2024-03-08T08:22:17;2.50;99.90
30648;DHT22;17683;53.360;9.736;2024-03-08T08:24:43;2.60;99.90
30648;DHT22;17683;53.360;9.736;2024-03-08T08:27:12;2.60;99.90
30648;DHT22;17683;53.360;9.736;2024-03-08T08:29:38;2.70;99.90
30648;DHT22;17683;53.360;9.736;2024-03-08T08:32:04;2.70;99.90
30648;DHT22;17683;53.360;9.736;2024-03-08T08:34:33;2.70;99.90
30648;DHT22;17683;53.360;9.736;2024-03-08T08:37:02;2.80;99.90
30648;DHT22;17683;53.360;9.736;2024-03-08T08:39:27;2.90;99.90
30648;DHT22;17683;53.360;9.736;2024-03-08T08:42:02;3.00;99.90
30648;DHT22;17683;53.360;9.736;2024-03-08T08:44:29;3.00;99.90
30648;DHT22;17683;53.360;9.736;2024-03-08T08:46:57;3.10;99.90
30648;DHT22;17683;53.360;9.736;2024-03-08T08:49:26;3.20;99.90
30648;DHT22;17683;53.360;9.736;2024-03-08T08:51:53;3.30;99.90
30648;DHT22;17683;53.360;9.736;2024-03-08T08:54:19;3.30;99.90
30648;DHT22;17683;53.360;9.736;2024-03-08T08:56:46;3.40;99.90
30648;DHT22;17683;53.360;9.736;2024-03-08T08:59:13;3.50;99.90
30648;DHT22;17683;53.360;9.736;2024-03-08T09:01:48;3.50;99.90
30648;DHT22;17683;53.360;9.736;2024-03-08T09:04:13;3.60;99.90
30648;DHT22;17683;53.360;9.736;2024-03-08T09:06:39;3.80;99.90
30648;DHT22;17683;53.360;9.736;2024-03-08T09:09:09;3.90;99.90
30648;DHT22;17683;53.360;9.736;2024-03-08T09:11:36;4.00;99.90
30648;DHT22;17683;53.360;9.736;2024-03-08T09:14:07;4.10;99.90
30648;DHT22;17683;53.360;9.736;2024-03-08T09:16:33;4.20;99.90
30648;DHT22;17683;53.360;9.736;2024-03-08T09:18:58;4.20;99.90
30648;DHT22;17683;53.360;9.736;2024-03-08T09:21:25;4.30;99.90
30648;DHT22;17683;53.360;9.736;2024-03-08T09:23:53;4.40;99.90
30648;DHT22;17683;53.360;9.736;2024-03-08T09:26:19;4.50;99.90
30648;DHT22;17683;53.360;9.736;2024-03-08T09:28:45;4.60;99.90
30648;DHT22;17683;53.360;9.736;2024-03-08T09:31:11;4.70;99.90
30648;DHT22;17683;53.360;9.736;2024-03-08T09:33:37;4.70;99.90
30648;DHT22;17683;53.360;9.736;2024-03-08T09:36:06;4.80;99.90
30648;DHT22;17683;53.360;9.736;2024-03-08T09:38:33;4.90;99.90
30648;DHT22;17683;53.360;9.736;2024-03-08T09:41:00;5.00;99.90
30648;DHT22;17683;53.360;9.736;2024-03-08T09:43:28;5.10;99.90
30648;DHT22;17683;53.360;9.736;2024-03-08T09:45:54;5.20;99.90
30648;DHT22;17683;53.360;9.736;2024-03-08T09:48:22;5.30;99.90
30648;DHT22;17683;53.360;9.736;2024-03-08T09:50:48;5.40;99.90
30648;DHT22;17683;53.360;9.736;2024-03-08T09:53:15;5.50;99.90
30648;DHT22;17683;53.360;9.736;2024-03-08T09:55:41;5.50;99.90
30648;DHT22;17683;53.360;9.736;2024-03-08T09:58:11;5.50;99.90
30648;DHT22;17683;53.360;9.736;2024-03-08T10:00:56;5.60;99.90
30648;DHT22;17683;53.360;9.736;2024-03-08T10:03:27;5.60;99.90
30648;DHT22;17683;53.360;9.736;2024-03-08T10:05:56;5.70;99.90
30648;DHT22;17683;53.360;9.736;2024-03-08T10:08:27;5.80;99.90
30648;DHT22;17683;53.360;9.736;2024-03-08T10:10:55;5.90;99.90
30648;DHT22;17683;53.360;9.736;2024-03-08T10:13:24;6.00;99.90
30648;DHT22;17683;53.360;9.736;2024-03-08T10:15:51;6.10;99.90
30648;DHT22;17683;53.360;9.736;2024-03-08T10:18:17;6.10;99.90
30648;DHT22;17683;53.360;9.736;2024-03-08T10:20:42;6.20;99.90
30648;DHT22;17683;53.360;9.736;2024-03-08T10:23:08;6.20;99.90
30648;DHT22;17683;53.360;9.736;2024-03-08T10:25:36;6.30;99.90
30648;DHT22;17683;53.360;9.736;2024-03-08T10:28:05;6.30;99.90
30648;DHT22;17683;53.360;9.736;2024-03-08T10:30:31;6.40;99.90
30648;DHT22;17683;53.360;9.736;2024-03-08T10:32:58;6.40;99.90
30648;DHT22;17683;53.360;9.736;2024-03-08T10:35:24;6.40;99.90
30648;DHT22;17683;53.360;9.736;2024-03-08T10:37:52;6.40;99.90
30648;DHT22;17683;53.360;9.736;2024-03-08T10:40:25;6.40;99.90
30648;DHT22;17683;53.360;9.736;2024-03-08T10:45:36;6.50;99.90
30648;DHT22;17683;53.360;9.736;2024-03-08T10:50:38;6.60;99.90
30648;DHT22;17683;53.360;9.736;2024-03-08T10:53:06;6.70;99.90
30648;DHT22;17683;53.360;9.736;2024-03-08T10:55:33;6.80;99.90
30648;DHT22;17683;53.360;9.736;2024-03-08T10:58:01;6.80;99.90
30648;DHT22;17683;53.360;9.736;2024-03-08T11:00:27;6.80;99.90
30648;DHT22;17683;53.360;9.736;2024-03-08T11:02:56;6.90;99.90
30648;DHT22;17683;53.360;9.736;2024-03-08T11:05:38;6.90;99.90
30648;DHT22;17683;53.360;9.736;2024-03-08T11:08:20;6.90;99.90
30648;DHT22;17683;53.360;9.736;2024-03-08T11:10:50;7.00;99.90
30648;DHT22;17683;53.360;9.736;2024-03-08T11:13:41;7.00;99.90
30648;DHT22;17683;53.360;9.736;2024-03-08T11:16:36;7.00;99.90
30648;DHT22;17683;53.360;9.736;2024-03-08T11:19:05;7.00;99.90
30648;DHT22;17683;53.360;9.736;2024-03-08T11:21:34;7.10;99.90
30648;DHT22;17683;53.360;9.736;2024-03-08T11:24:00;7.40;99.90
30648;DHT22;17683;53.360;9.736;2024-03-08T11:26:27;7.50;99.90
30648;DHT22;17683;53.360;9.736;2024-03-08T11:28:52;7.50;99.90
30648;DHT22;17683;53.360;9.736;2024-03-08T11:31:22;7.40;99.90
30648;DHT22;17683;53.360;9.736;2024-03-08T11:33:48;7.50;99.90
30648;DHT22;17683;53.360;9.736;2024-03-08T11:38:51;7.70;99.90
30648;DHT22;17683;53.360;9.736;2024-03-08T11:41:19;7.90;99.90
30648;DHT22;17683;53.360;9.736;2024-03-08T11:43:46;7.90;99.90
30648;DHT22;17683;53.360;9.736;2024-03-08T11:46:13;8.00;99.90
30648;DHT22;17683;53.360;9.736;2024-03-08T11:48:43;8.10;99.90
30648;DHT22;17683;53.360;9.736;2024-03-08T11:51:14;8.30;99.90
30648;DHT22;17683;53.360;9.736;2024-03-08T11:53:41;8.40;99.90
30648;DHT22;17683;53.360;9.736;2024-03-08T11:56:08;8.40;99.90
30648;DHT22;17683;53.360;9.736;2024-03-08T11:58:35;8.30;99.90
30648;DHT22;17683;53.360;9.736;2024-03-08T12:01:05;8.30;99.90
30648;DHT22;17683;53.360;9.736;2024-03-08T12:03:31;8.40;99.90
30648;DHT22;17683;53.360;9.736;2024-03-08T12:06:00;8.50;99.90
30648;DHT22;17683;53.360;9.736;2024-03-08T12:08:27;8.60;99.90
30648;DHT22;17683;53.360;9.736;2024-03-08T12:10:55;8.70;99.90
30648;DHT22;17683;53.360;9.736;2024-03-08T12:13:29;8.80;99.90
30648;DHT22;17683;53.360;9.736;2024-03-08T12:15:59;8.80;99.90
30648;DHT22;17683;53.360;9.736;2024-03-08T12:18:26;8.80;99.90
30648;DHT22;17683;53.360;9.736;2024-03-08T12:21:13;8.80;99.90
30648;DHT22;17683;53.360;9.736;2024-03-08T12:24:07;8.70;99.90
30648;DHT22;17683;53.360;9.736;2024-03-08T12:26:35;8.60;99.90
30648;DHT22;17683;53.360;9.736;2024-03-08T12:29:34;8.50;99.90
30648;DHT22;17683;53.360;9.736;2024-03-08T12:32:05;8.50;99.90
30648;DHT22;17683;53.360;9.736;2024-03-08T12:34:30;8.50;99.90
30648;DHT22;17683;53.360;9.736;2024-03-08T12:36:58;8.60;99.90
30648;DHT22;17683;53.360;9.736;2024-03-08T12:39:24;8.70;99.90
30648;DHT22;17683;53.360;9.736;2024-03-08T12:41:53;8.70;99.90
30648;DHT22;17683;53.360;9.736;2024-03-08T12:44:20;8.80;99.90
30648;DHT22;17683;53.360;9.736;2024-03-08T12:46:50;8.80;99.90
30648;DHT22;17683;53.360;9.736;2024-03-08T12:51:28;9.00;99.90
30648;DHT22;17683;53.360;9.736;2024-03-08T12:53:55;8.60;99.90
30648;DHT22;17683;53.360;9.736;2024-03-08T12:56:31;8.60;99.90
30648;DHT22;17683;53.360;9.736;2024-03-08T12:58:59;8.50;99.90
30648;DHT22;17683;53.360;9.736;2024-03-08T13:01:26;8.40;99.90
30648;DHT22;17683;53.360;9.736;2024-03-08T13:03:53;8.50;99.90
30648;DHT22;17683;53.360;9.736;2024-03-08T13:06:19;8.40;99.90
30648;DHT22;17683;53.360;9.736;2024-03-08T13:08:50;8.40;99.90
30648;DHT22;17683;53.360;9.736;2024-03-08T13:11:19;8.50;99.90
30648;DHT22;17683;53.360;9.736;2024-03-08T13:13:46;8.50;99.90
30648;DHT22;17683;53.360;9.736;2024-03-08T13:16:12;8.50;99.90
30648;DHT22;17683;53.360;9.736;2024-03-08T13:18:41;8.50;99.90
30648;DHT22;17683;53.360;9.736;2024-03-08T13:21:12;8.50;99.90
30648;DHT22;17683;53.360;9.736;2024-03-08T13:23:41;8.50;99.90
30648;DHT22;17683;53.360;9.736;2024-03-08T13:26:12;8.40;99.90
30648;DHT22;17683;53.360;9.736;2024-03-08T13:28:48;8.50;99.90
30648;DHT22;17683;53.360;9.736;2024-03-08T13:31:22;8.50;99.90
30648;DHT22;17683;53.360;9.736;2024-03-08T13:33:47;8.50;99.90
30648;DHT22;17683;53.360;9.736;2024-03-08T13:36:14;8.50;99.90
30648;DHT22;17683;53.360;9.736;2024-03-08T13:38:47;8.50;99.90
30648;DHT22;17683;53.360;9.736;2024-03-08T13:41:14;8.50;99.90
30648;DHT22;17683;53.360;9.736;2024-03-08T13:43:46;8.50;99.90
30648;DHT22;17683;53.360;9.736;2024-03-08T13:46:12;8.50;99.90
30648;DHT22;17683;53.360;9.736;2024-03-08T13:48:39;8.60;99.90
30648;DHT22;17683;53.360;9.736;2024-03-08T13:51:07;8.60;99.90
30648;DHT22;17683;53.360;9.736;2024-03-08T13:53:34;8.60;99.90
30648;DHT22;17683;53.360;9.736;2024-03-08T13:56:02;8.60;99.90
30648;DHT22;17683;53.360;9.736;2024-03-08T13:58:28;8.50;99.90
30648;DHT22;17683;53.360;9.736;2024-03-08T14:00:54;8.60;99.90
30648;DHT22;17683;53.360;9.736;2024-03-08T14:03:21;8.50;99.90
30648;DHT22;17683;53.360;9.736;2024-03-08T14:05:47;8.50;99.90
30648;DHT22;17683;53.360;9.736;2024-03-08T14:08:13;8.50;99.90
30648;DHT22;17683;53.360;9.736;2024-03-08T14:10:39;8.50;99.90
30648;DHT22;17683;53.360;9.736;2024-03-08T14:13:05;8.50;99.90
30648;DHT22;17683;53.360;9.736;2024-03-08T14:15:32;8.40;99.90
30648;DHT22;17683;53.360;9.736;2024-03-08T14:17:59;8.40;99.90
30648;DHT22;17683;53.360;9.736;2024-03-08T14:20:25;8.40;99.90
30648;DHT22;17683;53.360;9.736;2024-03-08T14:22:56;8.30;99.90
30648;DHT22;17683;53.360;9.736;2024-03-08T14:25:23;8.40;99.90
30648;DHT22;17683;53.360;9.736;2024-03-08T14:27:50;8.40;99.90
30648;DHT22;17683;53.360;9.736;2024-03-08T14:30:20;8.50;99.90
30648;DHT22;17683;53.360;9.736;2024-03-08T14:33:04;8.40;99.90
30648;DHT22;17683;53.360;9.736;2024-03-08T14:35:31;8.40;99.90
30648;DHT22;17683;53.360;9.736;2024-03-08T14:37:57;8.30;99.90
30648;DHT22;17683;53.360;9.736;2024-03-08T14:40:26;8.30;99.90
30648;DHT22;17683;53.360;9.736;2024-03-08T14:42:52;8.30;99.90
30648;DHT22;17683;53.360;9.736;2024-03-08T14:45:19;8.30;99.90
30648;DHT22;17683;53.360;9.736;2024-03-08T14:47:48;8.30;99.90
30648;DHT22;17683;53.360;9.736;2024-03-08T14:50:18;8.30;99.90
30648;DHT22;17683;53.360;9.736;2024-03-08T14:52:44;8.30;99.90
30648;DHT22;17683;53.360;9.736;2024-03-08T14:55:17;8.40;99.90
30648;DHT22;17683;53.360;9.736;2024-03-08T14:57:45;8.30;99.90
30648;DHT22;17683;53.360;9.736;2024-03-08T15:00:12;8.30;99.90
30648;DHT22;17683;53.360;9.736;2024-03-08T15:02:56;8.30;99.70
30648;DHT22;17683;53.360;9.736;2024-03-08T15:05:25;8.30;99.90
30648;DHT22;17683;53.360;9.736;2024-03-08T15:07:57;8.20;99.90
30648;DHT22;17683;53.360;9.736;2024-03-08T15:10:26;8.30;99.90
30648;DHT22;17683;53.360;9.736;2024-03-08T15:12:54;8.30;99.90
30648;DHT22;17683;53.360;9.736;2024-03-08T15:15:21;8.30;99.90
30648;DHT22;17683;53.360;9.736;2024-03-08T15:17:50;8.20;99.90
30648;DHT22;17683;53.360;9.736;2024-03-08T15:20:17;8.30;98.80
30648;DHT22;17683;53.360;9.736;2024-03-08T15:22:51;8.20;99.10
30648;DHT22;17683;53.360;9.736;2024-03-08T15:25:20;8.20;98.30
30648;DHT22;17683;53.360;9.736;2024-03-08T15:27:54;8.20;99.50
30648;DHT22;17683;53.360;9.736;2024-03-08T15:30:21;8.10;98.50
30648;DHT22;17683;53.360;9.736;2024-03-08T15:32:52;8.10;99.90
30648;DHT22;17683;53.360;9.736;2024-03-08T15:35:26;8.20;99.90
30648;DHT22;17683;53.360;9.736;2024-03-08T15:37:53;8.10;99.70
30648;DHT22;17683;53.360;9.736;2024-03-08T15:40:20;8.10;99.90
30648;DHT22;17683;53.360;9.736;2024-03-08T15:42:55;8.10;99.70
30648;DHT22;17683;53.360;9.736;2024-03-08T15:45:21;8.10;99.50
30648;DHT22;17683;53.360;9.736;2024-03-08T15:47:49;8.00;99.90
30648;DHT22;17683;53.360;9.736;2024-03-08T15:50:15;8.00;99.30
30648;DHT22;17683;53.360;9.736;2024-03-08T15:52:44;8.00;99.90
30648;DHT22;17683;53.360;9.736;2024-03-08T15:55:17;7.90;99.90
30648;DHT22;17683;53.360;9.736;2024-03-08T15:57:49;7.90;99.80
30648;DHT22;17683;53.360;9.736;2024-03-08T16:00:16;7.80;99.90